sensor_id;sensor_type;location;lat;lon;timestamp;pressure;altitude;pressure_sealevel;temperature;humidity
19884;BME280;10104;50.732;10.174;2023-03-20T00:00:06;97962.44;;;12.70;80.50
19884;BME280;10104;50.732;10.174;2023-03-20T00:02:29;97967.94;;;12.62;81.75
19884;BME280;10104;50.732;10.174;2023-03-20T00:04:51;97963.00;;;12.59;81.97
19884;BME280;10104;50.732;10.174;2023-03-20T00:07:12;97967.50;;;12.52;82.73
19884;BME280;10104;50.732;10.174;2023-03-20T00:09:34;97963.06;;;12.25;84.77
19884;BME280;10104;50.732;10.174;2023-03-20T00:11:55;97958.19;;;12.35;83.47
19884;BME280;10104;50.732;10.174;2023-03-20T00:14:19;97967.44;;;12.39;83.35
19884;BME280;10104;50.732;10.174;2023-03-20T00:16:44;97964.16;;;12.43;83.34
19884;BME280;10104;50.732;10.174;2023-03-20T00:19:14;97965.38;;;12.41;83.19
19884;BME280;10104;50.732;10.174;2023-03-20T00:21:36;97966.66;;;12.51;82.10
19884;BME280;10104;50.732;10.174;2023-03-20T00:23:58;97961.31;;;12.45;82.45
19884;BME280;10104;50.732;10.174;2023-03-20T00:26:23;97964.84;;;12.52;82.15
19884;BME280;10104;50.732;10.174;2023-03-20T00:28:47;97965.06;;;12.64;81.09
19884;BME280;10104;50.732;10.174;2023-03-20T00:31:31;97959.53;;;12.59;81.53
19884;BME280;10104;50.732;10.174;2023-03-20T00:33:55;97970.16;;;12.59;81.10
19884;BME280;10104;50.732;10.174;2023-03-20T00:36:17;97961.00;;;12.68;80.71
19884;BME280;10104;50.732;10.174;2023-03-20T00:38:39;97969.56;;;12.63;80.77
19884;BME280;10104;50.732;10.174;2023-03-20T00:41:00;97965.47;;;12.67;80.22
19884;BME280;10104;50.732;10.174;2023-03-20T00:43:22;97969.75;;;12.62;80.84
19884;BME280;10104;50.732;10.174;2023-03-20T00:45:44;97970.59;;;12.69;80.19
19884;BME280;10104;50.732;10.174;2023-03-20T00:48:09;97974.03;;;12.56;81.26
19884;BME280;10104;50.732;10.174;2023-03-20T00:50:33;97976.09;;;12.67;80.51
19884;BME280;10104;50.732;10.174;2023-03-20T00:52:56;97977.38;;;12.71;79.86
19884;BME280;10104;50.732;10.174;2023-03-20T00:55:20;97971.47;;;12.82;79.02
19884;BME280;10104;50.732;10.174;2023-03-20T00:57:51;97972.47;;;12.81;79.04
19884;BME280;10104;50.732;10.174;2023-03-20T01:00:37;97985.34;;;12.84;78.63
19884;BME280;10104;50.732;10.174;2023-03-20T01:03:01;97971.84;;;12.79;79.01
19884;BME280;10104;50.732;10.174;2023-03-20T01:05:26;97978.97;;;12.72;79.45
19884;BME280;10104;50.732;10.174;2023-03-20T01:07:49;97986.13;;;12.65;80.37
19884;BME280;10104;50.732;10.174;2023-03-20T01:10:11;97987.69;;;12.46;81.27
19884;BME280;10104;50.732;10.174;2023-03-20T01:12:33;97980.38;;;12.62;80.32
19884;BME280;10104;50.732;10.174;2023-03-20T01:14:56;97992.88;;;12.68;79.64
19884;BME280;10104;50.732;10.174;2023-03-20T01:17:22;97992.63;;;12.56;81.21
19884;BME280;10104;50.732;10.174;2023-03-20T01:19:44;97987.34;;;12.63;80.62
19884;BME280;10104;50.732;10.174;2023-03-20T01:22:06;97986.31;;;12.64;80.29
19884;BME280;10104;50.732;10.174;2023-03-20T01:24:28;97999.31;;;12.45;81.80
19884;BME280;10104;50.732;10.174;2023-03-20T01:26:49;97987.28;;;12.49;81.18
19884;BME280;10104;50.732;10.174;2023-03-20T01:31:37;97990.34;;;12.53;81.27
19884;BME280;10104;50.732;10.174;2023-03-20T01:33:59;97996.47;;;12.53;80.80
19884;BME280;10104;50.732;10.174;2023-03-20T01:36:21;97998.69;;;12.43;82.04
19884;BME280;10104;50.732;10.174;2023-03-20T01:38:43;97995.81;;;12.38;82.14
19884;BME280;10104;50.732;10.174;2023-03-20T01:41:11;97999.72;;;12.42;81.80
19884;BME280;10104;50.732;10.174;2023-03-20T01:43:33;97997.50;;;12.46;81.31
19884;BME280;10104;50.732;10.174;2023-03-20T01:46:00;98005.66;;;12.44;81.43
19884;BME280;10104;50.732;10.174;2023-03-20T01:48:24;98010.19;;;12.50;81.37
19884;BME280;10104;50.732;10.174;2023-03-20T01:50:47;98006.03;;;12.41;82.28
19884;BME280;10104;50.732;10.174;2023-03-20T01:53:18;98001.75;;;12.47;81.30
19884;BME280;10104;50.732;10.174;2023-03-20T01:55:41;98000.28;;;12.31;83.45
19884;BME280;10104;50.732;10.174;2023-03-20T01:58:07;97992.94;;;12.33;83.22
19884;BME280;10104;50.732;10.174;2023-03-20T02:00:30;98000.13;;;12.39;82.42
19884;BME280;10104;50.732;10.174;2023-03-20T02:02:52;97995.25;;;12.08;85.38
19884;BME280;10104;50.732;10.174;2023-03-20T02:05:18;97995.09;;;12.23;83.41
19884;BME280;10104;50.732;10.174;2023-03-20T02:07:40;97989.28;;;12.34;82.94
19884;BME280;10104;50.732;10.174;2023-03-20T02:10:12;97990.06;;;12.35;82.86
19884;BME280;10104;50.732;10.174;2023-03-20T02:12:35;97997.00;;;12.36;83.05
19884;BME280;10104;50.732;10.174;2023-03-20T02:14:56;97991.31;;;12.39;82.35
19884;BME280;10104;50.732;10.174;2023-03-20T02:17:19;97984.41;;;12.44;82.60
19884;BME280;10104;50.732;10.174;2023-03-20T02:20:09;97987.25;;;12.43;82.00
19884;BME280;10104;50.732;10.174;2023-03-20T02:25:27;97989.28;;;12.41;82.66
19884;BME280;10104;50.732;10.174;2023-03-20T02:31:05;97991.75;;;12.42;82.21
19884;BME280;10104;50.732;10.174;2023-03-20T02:41:29;97987.06;;;12.44;81.72
19884;BME280;10104;50.732;10.174;2023-03-20T02:44:20;97987.09;;;12.51;81.72
19884;BME280;10104;50.732;10.174;2023-03-20T02:47:05;97997.00;;;12.36;82.90
19884;BME280;10104;50.732;10.174;2023-03-20T02:55:13;97987.00;;;12.31;84.57
19884;BME280;10104;50.732;10.174;2023-03-20T02:57:42;97984.25;;;12.18;87.07
19884;BME280;10104;50.732;10.174;2023-03-20T03:00:13;97983.72;;;11.95;89.28
19884;BME280;10104;50.732;10.174;2023-03-20T03:02:39;97985.56;;;11.73;91.45
19884;BME280;10104;50.732;10.174;2023-03-20T03:05:07;97985.13;;;11.69;92.04
19884;BME280;10104;50.732;10.174;2023-03-20T03:07:32;97979.19;;;11.67;91.83
19884;BME280;10104;50.732;10.174;2023-03-20T03:09:59;97979.97;;;11.83;90.04
19884;BME280;10104;50.732;10.174;2023-03-20T03:12:28;97984.72;;;11.94;88.89
19884;BME280;10104;50.732;10.174;2023-03-20T03:14:54;97989.03;;;11.95;88.50
19884;BME280;10104;50.732;10.174;2023-03-20T03:17:19;97984.34;;;11.97;88.34
19884;BME280;10104;50.732;10.174;2023-03-20T03:19:48;97988.72;;;12.11;87.42
19884;BME280;10104;50.732;10.174;2023-03-20T03:22:11;97983.63;;;12.16;86.77
19884;BME280;10104;50.732;10.174;2023-03-20T03:24:35;97980.50;;;12.40;85.80
19884;BME280;10104;50.732;10.174;2023-03-20T03:27:10;97975.25;;;12.60;84.22
19884;BME280;10104;50.732;10.174;2023-03-20T03:29:35;97988.53;;;12.60;83.99
19884;BME280;10104;50.732;10.174;2023-03-20T03:31:57;97987.81;;;12.32;85.35
19884;BME280;10104;50.732;10.174;2023-03-20T03:34:20;97988.41;;;12.27;85.19
19884;BME280;10104;50.732;10.174;2023-03-20T03:36:50;97999.44;;;12.31;85.11
19884;BME280;10104;50.732;10.174;2023-03-20T03:42:29;98007.00;;;11.99;87.38
19884;BME280;10104;50.732;10.174;2023-03-20T03:45:11;98010.34;;;12.08;86.75
19884;BME280;10104;50.732;10.174;2023-03-20T03:47:49;98010.81;;;12.18;85.63
19884;BME280;10104;50.732;10.174;2023-03-20T03:50:50;98013.91;;;12.22;85.26
19884;BME280;10104;50.732;10.174;2023-03-20T03:53:17;98012.28;;;12.21;85.19
19884;BME280;10104;50.732;10.174;2023-03-20T03:55:43;98014.59;;;12.02;87.21
19884;BME280;10104;50.732;10.174;2023-03-20T03:58:10;98018.84;;;11.97;87.70
19884;BME280;10104;50.732;10.174;2023-03-20T04:00:39;98019.56;;;12.12;86.37
19884;BME280;10104;50.732;10.174;2023-03-20T04:03:04;98018.72;;;12.11;86.89
19884;BME280;10104;50.732;10.174;2023-03-20T04:05:30;98021.56;;;12.03;87.31
19884;BME280;10104;50.732;10.174;2023-03-20T04:07:55;98021.78;;;12.08;86.56
19884;BME280;10104;50.732;10.174;2023-03-20T04:10:18;98027.00;;;11.95;88.01
19884;BME280;10104;50.732;10.174;2023-03-20T04:12:41;98021.75;;;12.02;87.77
19884;BME280;10104;50.732;10.174;2023-03-20T04:15:04;98028.53;;;12.11;87.34
19884;BME280;10104;50.732;10.174;2023-03-20T04:17:25;98027.31;;;12.13;88.17
19884;BME280;10104;50.732;10.174;2023-03-20T04:19:47;98027.78;;;11.89;91.00
19884;BME280;10104;50.732;10.174;2023-03-20T04:22:08;98030.38;;;11.83;91.08
19884;BME280;10104;50.732;10.174;2023-03-20T04:24:30;98026.13;;;11.88;90.87
19884;BME280;10104;50.732;10.174;2023-03-20T04:26:52;98024.66;;;11.86;91.09
19884;BME280;10104;50.732;10.174;2023-03-20T04:29:14;98025.84;;;11.77;93.40
19884;BME280;10104;50.732;10.174;2023-03-20T04:31:36;98026.84;;;11.75;93.23
19884;BME280;10104;50.732;10.174;2023-03-20T04:33:57;98025.56;;;11.71;94.25
19884;BME280;10104;50.732;10.174;2023-03-20T04:36:19;98030.81;;;11.44;97.32
19884;BME280;10104;50.732;10.174;2023-03-20T04:38:48;98024.31;;;11.46;97.38
19884;BME280;10104;50.732;10.174;2023-03-20T04:41:10;98027.22;;;11.30;98.48
19884;BME280;10104;50.732;10.174;2023-03-20T04:43:32;98029.13;;;11.15;100.00
19884;BME280;10104;50.732;10.174;2023-03-20T04:45:54;98031.50;;;11.10;100.00
19884;BME280;10104;50.732;10.174;2023-03-20T04:48:15;98027.41;;;11.07;100.00
19884;BME280;10104;50.732;10.174;2023-03-20T04:50:37;98032.00;;;11.20;99.78
19884;BME280;10104;50.732;10.174;2023-03-20T04:52:58;98034.91;;;11.25;99.19
19884;BME280;10104;50.732;10.174;2023-03-20T04:55:20;98026.38;;;11.29;99.00
19884;BME280;10104;50.732;10.174;2023-03-20T04:57:42;98040.03;;;11.26;99.03
19884;BME280;10104;50.732;10.174;2023-03-20T05:00:04;98036.00;;;11.30;98.78
19884;BME280;10104;50.732;10.174;2023-03-20T05:02:26;98038.94;;;11.42;98.21
19884;BME280;10104;50.732;10.174;2023-03-20T05:04:47;98035.66;;;11.61;96.49
19884;BME280;10104;50.732;10.174;2023-03-20T05:07:09;98034.53;;;11.70;95.69
19884;BME280;10104;50.732;10.174;2023-03-20T05:09:31;98042.75;;;11.75;94.84
19884;BME280;10104;50.732;10.174;2023-03-20T05:11:52;98041.94;;;11.75;95.04
19884;BME280;10104;50.732;10.174;2023-03-20T05:14:13;98043.31;;;11.71;95.42
19884;BME280;10104;50.732;10.174;2023-03-20T05:16:35;98043.09;;;11.94;93.81
19884;BME280;10104;50.732;10.174;2023-03-20T05:18:57;98043.63;;;12.10;92.50
19884;BME280;10104;50.732;10.174;2023-03-20T05:21:18;98047.50;;;12.08;92.44
19884;BME280;10104;50.732;10.174;2023-03-20T05:23:40;98044.63;;;12.03;93.07
19884;BME280;10104;50.732;10.174;2023-03-20T05:26:01;98041.09;;;11.96;93.73
19884;BME280;10104;50.732;10.174;2023-03-20T05:28:23;98049.38;;;11.86;94.49
19884;BME280;10104;50.732;10.174;2023-03-20T05:30:45;98049.88;;;11.96;93.89
19884;BME280;10104;50.732;10.174;2023-03-20T05:33:06;98045.22;;;12.05;93.12
19884;BME280;10104;50.732;10.174;2023-03-20T05:35:28;98041.69;;;11.98;93.49
19884;BME280;10104;50.732;10.174;2023-03-20T05:37:50;98040.53;;;11.79;95.12
19884;BME280;10104;50.732;10.174;2023-03-20T05:40:13;98046.72;;;11.86;94.75
19884;BME280;10104;50.732;10.174;2023-03-20T05:42:35;98044.63;;;11.60;97.23
19884;BME280;10104;50.732;10.174;2023-03-20T05:44:57;98039.31;;;11.60;96.81
19884;BME280;10104;50.732;10.174;2023-03-20T05:47:18;98031.69;;;11.72;96.81
19884;BME280;10104;50.732;10.174;2023-03-20T05:49:40;98033.34;;;11.52;98.04
19884;BME280;10104;50.732;10.174;2023-03-20T05:52:02;98034.91;;;11.25;99.81
19884;BME280;10104;50.732;10.174;2023-03-20T05:54:23;98037.13;;;11.21;100.00
19884;BME280;10104;50.732;10.174;2023-03-20T05:56:45;98032.25;;;11.25;100.00
19884;BME280;10104;50.732;10.174;2023-03-20T05:59:07;98047.16;;;11.26;100.00
19884;BME280;10104;50.732;10.174;2023-03-20T06:01:28;98032.97;;;11.33;100.00
19884;BME280;10104;50.732;10.174;2023-03-20T06:03:50;98037.63;;;11.31;100.00
19884;BME280;10104;50.732;10.174;2023-03-20T06:06:12;98044.16;;;11.29;100.00
19884;BME280;10104;50.732;10.174;2023-03-20T06:08:33;98048.06;;;11.33;100.00
19884;BME280;10104;50.732;10.174;2023-03-20T06:10:56;98053.03;;;11.43;100.00
19884;BME280;10104;50.732;10.174;2023-03-20T06:13:18;98046.16;;;11.48;100.00
19884;BME280;10104;50.732;10.174;2023-03-20T06:15:39;98037.00;;;11.51;100.00
19884;BME280;10104;50.732;10.174;2023-03-20T06:18:01;98033.53;;;11.71;99.82
19884;BME280;10104;50.732;10.174;2023-03-20T06:20:23;98035.50;;;11.84;98.44
19884;BME280;10104;50.732;10.174;2023-03-20T06:22:45;98038.69;;;11.80;98.17
19884;BME280;10104;50.732;10.174;2023-03-20T06:25:07;98039.28;;;11.75;98.96
19884;BME280;10104;50.732;10.174;2023-03-20T06:27:28;98044.31;;;11.91;99.04
19884;BME280;10104;50.732;10.174;2023-03-20T06:29:51;98047.28;;;12.03;97.77
19884;BME280;10104;50.732;10.174;2023-03-20T06:32:13;98048.88;;;12.04;97.88
19884;BME280;10104;50.732;10.174;2023-03-20T06:34:35;98053.00;;;12.06;97.02
19884;BME280;10104;50.732;10.174;2023-03-20T06:36:56;98054.47;;;12.09;97.11
19884;BME280;10104;50.732;10.174;2023-03-20T06:39:18;98052.47;;;12.18;97.75
19884;BME280;10104;50.732;10.174;2023-03-20T06:41:39;98059.25;;;11.99;97.49
19884;BME280;10104;50.732;10.174;2023-03-20T06:44:01;98062.59;;;11.80;98.07
19884;BME280;10104;50.732;10.174;2023-03-20T06:46:24;98063.34;;;11.73;99.50
19884;BME280;10104;50.732;10.174;2023-03-20T06:48:46;98055.19;;;11.75;99.69
19884;BME280;10104;50.732;10.174;2023-03-20T06:51:07;98065.88;;;11.82;100.00
19884;BME280;10104;50.732;10.174;2023-03-20T06:53:29;98057.25;;;12.01;97.54
19884;BME280;10104;50.732;10.174;2023-03-20T06:55:51;98060.56;;;11.82;98.64
19884;BME280;10104;50.732;10.174;2023-03-20T06:58:13;98063.03;;;11.83;97.96
19884;BME280;10104;50.732;10.174;2023-03-20T07:00:34;98059.16;;;11.86;97.92
19884;BME280;10104;50.732;10.174;2023-03-20T07:02:56;98055.03;;;12.04;97.22
19884;BME280;10104;50.732;10.174;2023-03-20T07:05:19;98059.91;;;12.01;96.94
19884;BME280;10104;50.732;10.174;2023-03-20T07:07:40;98064.44;;;12.07;96.07
19884;BME280;10104;50.732;10.174;2023-03-20T07:10:03;98062.09;;;11.97;96.88
19884;BME280;10104;50.732;10.174;2023-03-20T07:12:24;98058.59;;;11.90;96.71
19884;BME280;10104;50.732;10.174;2023-03-20T07:14:48;98063.75;;;11.98;96.73
19884;BME280;10104;50.732;10.174;2023-03-20T07:17:11;98071.47;;;11.93;96.83
19884;BME280;10104;50.732;10.174;2023-03-20T07:19:33;98068.63;;;11.95;97.26
19884;BME280;10104;50.732;10.174;2023-03-20T07:21:59;98073.31;;;11.93;97.65
19884;BME280;10104;50.732;10.174;2023-03-20T07:24:23;98079.06;;;11.96;97.95
19884;BME280;10104;50.732;10.174;2023-03-20T07:26:45;98078.41;;;12.15;97.00
19884;BME280;10104;50.732;10.174;2023-03-20T07:29:07;98078.53;;;12.07;96.84
19884;BME280;10104;50.732;10.174;2023-03-20T07:31:28;98087.56;;;12.13;97.03
19884;BME280;10104;50.732;10.174;2023-03-20T07:33:51;98096.00;;;11.95;97.31
19884;BME280;10104;50.732;10.174;2023-03-20T07:36:13;98098.72;;;11.81;97.95
19884;BME280;10104;50.732;10.174;2023-03-20T07:38:34;98106.09;;;11.85;98.38
19884;BME280;10104;50.732;10.174;2023-03-20T07:40:56;98105.34;;;11.70;99.15
19884;BME280;10104;50.732;10.174;2023-03-20T07:43:17;98111.09;;;11.73;99.42
19884;BME280;10104;50.732;10.174;2023-03-20T07:45:39;98108.75;;;11.64;99.94
19884;BME280;10104;50.732;10.174;2023-03-20T07:48:00;98107.50;;;11.60;100.00
19884;BME280;10104;50.732;10.174;2023-03-20T07:50:22;98114.81;;;11.58;100.00
19884;BME280;10104;50.732;10.174;2023-03-20T07:52:47;98110.22;;;11.66;100.00
19884;BME280;10104;50.732;10.174;2023-03-20T07:55:08;98118.34;;;11.65;100.00
19884;BME280;10104;50.732;10.174;2023-03-20T07:57:30;98119.22;;;11.51;100.00
19884;BME280;10104;50.732;10.174;2023-03-20T07:59:52;98119.16;;;11.29;100.00
19884;BME280;10104;50.732;10.174;2023-03-20T08:02:14;98123.25;;;11.47;100.00
19884;BME280;10104;50.732;10.174;2023-03-20T08:04:36;98115.09;;;11.48;100.00
19884;BME280;10104;50.732;10.174;2023-03-20T08:06:58;98117.63;;;11.56;100.00
19884;BME280;10104;50.732;10.174;2023-03-20T08:09:19;98113.72;;;11.52;100.00
19884;BME280;10104;50.732;10.174;2023-03-20T08:11:41;98105.09;;;11.65;100.00
19884;BME280;10104;50.732;10.174;2023-03-20T08:14:02;98111.63;;;11.69;100.00
19884;BME280;10104;50.732;10.174;2023-03-20T08:16:24;98104.13;;;11.72;100.00
19884;BME280;10104;50.732;10.174;2023-03-20T08:18:46;98109.81;;;11.69;100.00
19884;BME280;10104;50.732;10.174;2023-03-20T08:21:08;98108.44;;;11.73;100.00
19884;BME280;10104;50.732;10.174;2023-03-20T08:23:29;98113.94;;;11.93;99.89
19884;BME280;10104;50.732;10.174;2023-03-20T08:25:51;98119.47;;;11.98;100.00
19884;BME280;10104;50.732;10.174;2023-03-20T08:28:14;98119.88;;;11.95;99.80
19884;BME280;10104;50.732;10.174;2023-03-20T08:30:36;98120.22;;;12.13;99.61
19884;BME280;10104;50.732;10.174;2023-03-20T08:32:58;98127.66;;;11.97;99.98
19884;BME280;10104;50.732;10.174;2023-03-20T08:35:20;98118.00;;;12.17;99.81
19884;BME280;10104;50.732;10.174;2023-03-20T08:37:53;98116.50;;;12.36;98.42
19884;BME280;10104;50.732;10.174;2023-03-20T08:40:14;98122.69;;;12.43;98.25
19884;BME280;10104;50.732;10.174;2023-03-20T08:42:37;98126.34;;;12.42;98.85
19884;BME280;10104;50.732;10.174;2023-03-20T08:44:59;98124.88;;;12.33;99.42
19884;BME280;10104;50.732;10.174;2023-03-20T08:47:20;98121.00;;;12.35;97.99
19884;BME280;10104;50.732;10.174;2023-03-20T08:49:42;98119.81;;;12.38;97.73
19884;BME280;10104;50.732;10.174;2023-03-20T08:52:04;98122.84;;;12.35;97.49
19884;BME280;10104;50.732;10.174;2023-03-20T08:54:26;98126.78;;;12.18;99.18
19884;BME280;10104;50.732;10.174;2023-03-20T08:56:47;98120.94;;;12.29;98.85
19884;BME280;10104;50.732;10.174;2023-03-20T08:59:09;98127.53;;;12.33;97.52
19884;BME280;10104;50.732;10.174;2023-03-20T09:01:30;98124.25;;;12.31;97.74
19884;BME280;10104;50.732;10.174;2023-03-20T09:04:10;98130.50;;;12.23;97.84
19884;BME280;10104;50.732;10.174;2023-03-20T09:06:35;98141.34;;;12.22;98.43
19884;BME280;10104;50.732;10.174;2023-03-20T09:08:57;98141.13;;;12.23;99.22
19884;BME280;10104;50.732;10.174;2023-03-20T09:11:18;98137.09;;;12.27;98.97
19884;BME280;10104;50.732;10.174;2023-03-20T09:13:40;98145.25;;;12.26;98.83
19884;BME280;10104;50.732;10.174;2023-03-20T09:16:01;98140.41;;;12.36;99.38
19884;BME280;10104;50.732;10.174;2023-03-20T09:18:24;98142.88;;;12.37;99.59
19884;BME280;10104;50.732;10.174;2023-03-20T09:20:46;98146.84;;;12.48;98.39
19884;BME280;10104;50.732;10.174;2023-03-20T09:23:08;98138.88;;;12.48;97.40
19884;BME280;10104;50.732;10.174;2023-03-20T09:25:30;98146.50;;;12.57;95.82
19884;BME280;10104;50.732;10.174;2023-03-20T09:27:52;98146.97;;;12.68;95.40
19884;BME280;10104;50.732;10.174;2023-03-20T09:30:15;98145.78;;;12.70;95.04
19884;BME280;10104;50.732;10.174;2023-03-20T09:32:37;98143.16;;;12.77;94.94
19884;BME280;10104;50.732;10.174;2023-03-20T09:34:59;98149.84;;;12.73;93.96
19884;BME280;10104;50.732;10.174;2023-03-20T09:37:20;98158.97;;;12.57;94.95
19884;BME280;10104;50.732;10.174;2023-03-20T09:39:42;98150.34;;;12.55;94.06
19884;BME280;10104;50.732;10.174;2023-03-20T09:42:16;98155.75;;;12.68;94.01
19884;BME280;10104;50.732;10.174;2023-03-20T09:45:04;98151.22;;;12.62;93.91
19884;BME280;10104;50.732;10.174;2023-03-20T09:50:22;98152.06;;;12.63;93.28
19884;BME280;10104;50.732;10.174;2023-03-20T09:52:53;98158.56;;;12.60;92.68
19884;BME280;10104;50.732;10.174;2023-03-20T09:55:20;98150.34;;;12.83;91.81
19884;BME280;10104;50.732;10.174;2023-03-20T09:57:50;98152.66;;;12.99;92.35
19884;BME280;10104;50.732;10.174;2023-03-20T10:00:25;98151.09;;;13.11;92.19
19884;BME280;10104;50.732;10.174;2023-03-20T10:02:51;98150.00;;;13.40;88.82
19884;BME280;10104;50.732;10.174;2023-03-20T10:05:44;98148.56;;;13.31;89.14
19884;BME280;10104;50.732;10.174;2023-03-20T10:08:14;98158.59;;;13.35;88.85
19884;BME280;10104;50.732;10.174;2023-03-20T10:10:58;98154.00;;;13.77;88.20
19884;BME280;10104;50.732;10.174;2023-03-20T10:13:34;98155.63;;;13.78;86.10
19884;BME280;10104;50.732;10.174;2023-03-20T10:21:46;98154.88;;;13.30;86.41
19884;BME280;10104;50.732;10.174;2023-03-20T10:24:16;98158.78;;;13.34;87.79
19884;BME280;10104;50.732;10.174;2023-03-20T10:26:41;98151.44;;;13.36;86.62
19884;BME280;10104;50.732;10.174;2023-03-20T10:29:06;98161.69;;;13.46;85.59
19884;BME280;10104;50.732;10.174;2023-03-20T10:34:26;98158.84;;;13.54;87.54
19884;BME280;10104;50.732;10.174;2023-03-20T10:42:28;98157.16;;;13.40;86.87
19884;BME280;10104;50.732;10.174;2023-03-20T10:44:56;98158.44;;;13.50;85.56
19884;BME280;10104;50.732;10.174;2023-03-20T10:47:20;98150.81;;;13.41;85.65
19884;BME280;10104;50.732;10.174;2023-03-20T10:49:47;98156.78;;;13.43;85.30
19884;BME280;10104;50.732;10.174;2023-03-20T10:52:16;98151.78;;;13.20;86.10
19884;BME280;10104;50.732;10.174;2023-03-20T10:54:41;98144.81;;;13.19;86.86
19884;BME280;10104;50.732;10.174;2023-03-20T10:57:12;98143.56;;;13.15;86.74
19884;BME280;10104;50.732;10.174;2023-03-20T10:59:43;98146.88;;;13.23;85.29
19884;BME280;10104;50.732;10.174;2023-03-20T11:02:11;98147.03;;;13.69;83.81
19884;BME280;10104;50.732;10.174;2023-03-20T11:04:33;98142.94;;;13.73;82.38
19884;BME280;10104;50.732;10.174;2023-03-20T11:09:34;98136.41;;;14.02;78.51
19884;BME280;10104;50.732;10.174;2023-03-20T11:11:57;98145.88;;;14.11;75.42
19884;BME280;10104;50.732;10.174;2023-03-20T11:14:21;98137.69;;;14.39;76.83
19884;BME280;10104;50.732;10.174;2023-03-20T11:16:50;98135.59;;;14.81;75.75
19884;BME280;10104;50.732;10.174;2023-03-20T11:19:12;98138.22;;;14.87;73.79
19884;BME280;10104;50.732;10.174;2023-03-20T11:21:44;98135.50;;;15.07;72.24
19884;BME280;10104;50.732;10.174;2023-03-20T11:24:20;98137.16;;;14.95;72.95
19884;BME280;10104;50.732;10.174;2023-03-20T11:26:44;98136.00;;;14.78;72.85
19884;BME280;10104;50.732;10.174;2023-03-20T11:29:07;98124.63;;;15.02;70.92
19884;BME280;10104;50.732;10.174;2023-03-20T11:31:36;98121.31;;;15.13;70.16
19884;BME280;10104;50.732;10.174;2023-03-20T11:34:22;98109.66;;;15.52;68.14
19884;BME280;10104;50.732;10.174;2023-03-20T11:36:58;98117.59;;;15.21;66.55
19884;BME280;10104;50.732;10.174;2023-03-20T11:39:30;98107.00;;;15.52;67.87
19884;BME280;10104;50.732;10.174;2023-03-20T11:41:55;98106.75;;;15.60;65.66
19884;BME280;10104;50.732;10.174;2023-03-20T11:44:34;98111.94;;;15.55;66.37
19884;BME280;10104;50.732;10.174;2023-03-20T11:47:17;98112.34;;;15.52;65.56
19884;BME280;10104;50.732;10.174;2023-03-20T11:49:45;98100.19;;;15.56;65.05
19884;BME280;10104;50.732;10.174;2023-03-20T11:52:22;98109.22;;;15.17;69.61
19884;BME280;10104;50.732;10.174;2023-03-20T11:54:48;98109.91;;;15.00;70.88
19884;BME280;10104;50.732;10.174;2023-03-20T11:57:28;98109.94;;;14.86;69.21
19884;BME280;10104;50.732;10.174;2023-03-20T11:59:51;98105.63;;;14.85;72.61
19884;BME280;10104;50.732;10.174;2023-03-20T12:02:21;98114.13;;;15.14;70.55
19884;BME280;10104;50.732;10.174;2023-03-20T12:04:43;98101.47;;;15.54;69.76
19884;BME280;10104;50.732;10.174;2023-03-20T12:07:13;98098.91;;;15.65;68.09
19884;BME280;10104;50.732;10.174;2023-03-20T12:09:58;98093.16;;;15.30;65.78
19884;BME280;10104;50.732;10.174;2023-03-20T12:12:38;98088.94;;;15.54;65.26
19884;BME280;10104;50.732;10.174;2023-03-20T12:17:53;98082.53;;;15.87;67.91
19884;BME280;10104;50.732;10.174;2023-03-20T12:20:42;98077.38;;;15.92;66.34
19884;BME280;10104;50.732;10.174;2023-03-20T12:23:11;98076.16;;;15.88;66.02
19884;BME280;10104;50.732;10.174;2023-03-20T12:30:50;98077.72;;;14.88;71.93
19884;BME280;10104;50.732;10.174;2023-03-20T12:36:13;98077.84;;;14.29;72.89
19884;BME280;10104;50.732;10.174;2023-03-20T12:38:35;98073.97;;;13.85;73.07
19884;BME280;10104;50.732;10.174;2023-03-20T12:41:09;98084.22;;;13.88;75.42
19884;BME280;10104;50.732;10.174;2023-03-20T12:43:42;98078.03;;;14.14;73.31
19884;BME280;10104;50.732;10.174;2023-03-20T12:48:51;98065.16;;;14.04;70.50
19884;BME280;10104;50.732;10.174;2023-03-20T12:51:38;98064.94;;;14.19;68.99
19884;BME280;10104;50.732;10.174;2023-03-20T12:54:15;98073.72;;;14.46;69.64
19884;BME280;10104;50.732;10.174;2023-03-20T12:59:22;98058.75;;;14.58;72.45
19884;BME280;10104;50.732;10.174;2023-03-20T13:02:02;98069.59;;;14.56;68.80
19884;BME280;10104;50.732;10.174;2023-03-20T13:04:56;98063.06;;;14.46;68.34
19884;BME280;10104;50.732;10.174;2023-03-20T13:07:21;98056.34;;;14.24;69.35
19884;BME280;10104;50.732;10.174;2023-03-20T13:20:20;98038.47;;;14.50;69.53
19884;BME280;10104;50.732;10.174;2023-03-20T13:25:43;98038.69;;;14.42;67.69
19884;BME280;10104;50.732;10.174;2023-03-20T13:31:09;98040.50;;;14.62;70.99
19884;BME280;10104;50.732;10.174;2023-03-20T13:38:52;98018.81;;;15.34;64.19
19884;BME280;10104;50.732;10.174;2023-03-20T13:41:16;98014.16;;;15.23;65.04
19884;BME280;10104;50.732;10.174;2023-03-20T13:43:49;98019.97;;;15.07;65.98
19884;BME280;10104;50.732;10.174;2023-03-20T13:46:21;98016.38;;;14.88;64.97
19884;BME280;10104;50.732;10.174;2023-03-20T13:48:44;98012.91;;;15.25;64.83
19884;BME280;10104;50.732;10.174;2023-03-20T13:59:19;98000.19;;;14.89;66.08
19884;BME280;10104;50.732;10.174;2023-03-20T14:01:55;98004.97;;;15.12;66.16
19884;BME280;10104;50.732;10.174;2023-03-20T14:04:22;97998.97;;;15.23;64.39
19884;BME280;10104;50.732;10.174;2023-03-20T14:06:51;98002.56;;;15.04;65.60
19884;BME280;10104;50.732;10.174;2023-03-20T14:09:33;98001.31;;;15.07;64.30
19884;BME280;10104;50.732;10.174;2023-03-20T14:12:00;98002.50;;;14.79;67.35